sensor_id;sensor_type;location;lat;lon;timestamp;P1;durP1;ratioP1;P2;durP2;ratioP2
33824;SDS011;20127;48.962;8.342;2023-04-19T00:01:41;14.35;;;12.30;;
33824;SDS011;20127;48.962;8.342;2023-04-19T00:04:42;15.95;;;12.50;;
33824;SDS011;20127;48.962;8.342;2023-04-19T00:07:46;18.60;;;12.77;;
33824;SDS011;20127;48.962;8.342;2023-04-19T00:10:48;16.85;;;13.40;;
33824;SDS011;20127;48.962;8.342;2023-04-19T00:13:49;17.05;;;13.45;;
33824;SDS011;20127;48.962;8.342;2023-04-19T00:17:03;18.02;;;12.90;;
33824;SDS011;20127;48.962;8.342;2023-04-19T00:20:05;17.25;;;11.25;;
33824;SDS011;20127;48.962;8.342;2023-04-19T00:23:08;17.65;;;11.98;;
33824;SDS011;20127;48.962;8.342;2023-04-19T00:26:10;17.92;;;13.70;;
33824;SDS011;20127;48.962;8.342;2023-04-19T00:29:14;17.00;;;12.70;;
33824;SDS011;20127;48.962;8.342;2023-04-19T00:32:16;18.75;;;12.20;;
33824;SDS011;20127;48.962;8.342;2023-04-19T00:35:18;19.85;;;13.75;;
33824;SDS011;20127;48.962;8.342;2023-04-19T00:38:21;15.38;;;13.70;;
33824;SDS011;20127;48.962;8.342;2023-04-19T00:41:22;17.48;;;12.93;;
33824;SDS011;20127;48.962;8.342;2023-04-19T00:44:24;17.35;;;12.55;;
33824;SDS011;20127;48.962;8.342;2023-04-19T00:47:26;19.15;;;13.85;;
33824;SDS011;20127;48.962;8.342;2023-04-19T00:50:28;15.48;;;11.88;;
33824;SDS011;20127;48.962;8.342;2023-04-19T00:53:31;17.58;;;12.75;;
33824;SDS011;20127;48.962;8.342;2023-04-19T00:56:34;21.77;;;13.98;;
33824;SDS011;20127;48.962;8.342;2023-04-19T00:59:35;19.23;;;12.65;;
33824;SDS011;20127;48.962;8.342;2023-04-19T01:02:38;15.68;;;11.85;;
33824;SDS011;20127;48.962;8.342;2023-04-19T01:05:40;14.27;;;11.43;;
33824;SDS011;20127;48.962;8.342;2023-04-19T01:08:43;19.52;;;13.48;;
33824;SDS011;20127;48.962;8.342;2023-04-19T01:11:45;15.65;;;11.20;;
33824;SDS011;20127;48.962;8.342;2023-04-19T01:14:47;16.35;;;10.85;;
33824;SDS011;20127;48.962;8.342;2023-04-19T01:17:50;19.90;;;12.13;;
33824;SDS011;20127;48.962;8.342;2023-04-19T01:20:52;14.75;;;10.93;;
33824;SDS011;20127;48.962;8.342;2023-04-19T01:23:55;16.13;;;11.88;;
33824;SDS011;20127;48.962;8.342;2023-04-19T01:26:57;17.55;;;12.63;;
33824;SDS011;20127;48.962;8.342;2023-04-19T01:29:59;18.13;;;12.48;;
33824;SDS011;20127;48.962;8.342;2023-04-19T01:33:00;18.10;;;13.18;;
33824;SDS011;20127;48.962;8.342;2023-04-19T01:36:02;20.45;;;13.07;;
33824;SDS011;20127;48.962;8.342;2023-04-19T01:39:05;15.63;;;13.32;;
33824;SDS011;20127;48.962;8.342;2023-04-19T01:42:07;18.75;;;12.40;;
33824;SDS011;20127;48.962;8.342;2023-04-19T01:45:09;16.45;;;12.23;;
33824;SDS011;20127;48.962;8.342;2023-04-19T01:48:11;14.13;;;11.32;;
33824;SDS011;20127;48.962;8.342;2023-04-19T01:51:13;15.43;;;12.73;;
33824;SDS011;20127;48.962;8.342;2023-04-19T01:54:17;19.40;;;14.65;;
33824;SDS011;20127;48.962;8.342;2023-04-19T01:57:19;17.95;;;12.98;;
33824;SDS011;20127;48.962;8.342;2023-04-19T02:00:21;15.40;;;12.20;;
33824;SDS011;20127;48.962;8.342;2023-04-19T02:03:23;18.73;;;13.10;;
33824;SDS011;20127;48.962;8.342;2023-04-19T02:06:24;21.70;;;14.95;;
33824;SDS011;20127;48.962;8.342;2023-04-19T02:09:28;18.98;;;13.05;;
33824;SDS011;20127;48.962;8.342;2023-04-19T02:12:29;18.70;;;11.52;;
33824;SDS011;20127;48.962;8.342;2023-04-19T02:15:32;19.00;;;13.68;;
33824;SDS011;20127;48.962;8.342;2023-04-19T02:18:36;20.60;;;12.73;;
33824;SDS011;20127;48.962;8.342;2023-04-19T02:21:38;15.65;;;12.02;;
33824;SDS011;20127;48.962;8.342;2023-04-19T02:24:41;19.17;;;14.38;;
33824;SDS011;20127;48.962;8.342;2023-04-19T02:27:43;16.80;;;13.82;;
33824;SDS011;20127;48.962;8.342;2023-04-19T02:30:44;19.38;;;14.48;;
33824;SDS011;20127;48.962;8.342;2023-04-19T02:33:46;17.00;;;11.82;;
33824;SDS011;20127;48.962;8.342;2023-04-19T02:36:48;19.52;;;12.82;;
33824;SDS011;20127;48.962;8.342;2023-04-19T02:39:51;18.83;;;14.90;;
33824;SDS011;20127;48.962;8.342;2023-04-19T02:42:52;18.42;;;14.45;;
33824;SDS011;20127;48.962;8.342;2023-04-19T02:45:54;18.23;;;13.38;;
33824;SDS011;20127;48.962;8.342;2023-04-19T02:48:56;15.88;;;11.95;;
33824;SDS011;20127;48.962;8.342;2023-04-19T02:52:00;22.33;;;16.15;;
33824;SDS011;20127;48.962;8.342;2023-04-19T02:55:03;19.17;;;13.68;;
33824;SDS011;20127;48.962;8.342;2023-04-19T02:58:06;26.33;;;15.85;;
33824;SDS011;20127;48.962;8.342;2023-04-19T03:01:07;17.63;;;13.30;;
33824;SDS011;20127;48.962;8.342;2023-04-19T03:04:09;18.55;;;13.75;;
33824;SDS011;20127;48.962;8.342;2023-04-19T03:07:12;19.77;;;13.73;;
33824;SDS011;20127;48.962;8.342;2023-04-19T03:10:15;19.80;;;14.02;;
33824;SDS011;20127;48.962;8.342;2023-04-19T03:13:17;20.92;;;14.30;;
33824;SDS011;20127;48.962;8.342;2023-04-19T03:16:19;15.32;;;11.70;;
33824;SDS011;20127;48.962;8.342;2023-04-19T03:19:21;23.85;;;14.38;;
33824;SDS011;20127;48.962;8.342;2023-04-19T03:22:22;16.75;;;13.27;;
33824;SDS011;20127;48.962;8.342;2023-04-19T03:25:25;16.98;;;11.63;;
33824;SDS011;20127;48.962;8.342;2023-04-19T03:28:27;17.70;;;12.10;;
33824;SDS011;20127;48.962;8.342;2023-04-19T03:31:29;19.15;;;13.00;;
33824;SDS011;20127;48.962;8.342;2023-04-19T03:34:30;19.30;;;14.00;;
33824;SDS011;20127;48.962;8.342;2023-04-19T03:37:32;17.20;;;13.60;;
33824;SDS011;20127;48.962;8.342;2023-04-19T03:40:36;20.33;;;13.65;;
33824;SDS011;20127;48.962;8.342;2023-04-19T03:43:38;19.17;;;12.05;;
33824;SDS011;20127;48.962;8.342;2023-04-19T03:46:39;21.63;;;17.05;;
33824;SDS011;20127;48.962;8.342;2023-04-19T03:49:41;16.23;;;11.40;;
33824;SDS011;20127;48.962;8.342;2023-04-19T03:52:43;17.58;;;13.43;;
33824;SDS011;20127;48.962;8.342;2023-04-19T03:55:46;14.38;;;11.80;;
33824;SDS011;20127;48.962;8.342;2023-04-19T03:58:49;17.98;;;13.57;;
33824;SDS011;20127;48.962;8.342;2023-04-19T04:01:51;15.07;;;11.85;;
33824;SDS011;20127;48.962;8.342;2023-04-19T04:04:52;17.70;;;12.25;;
33824;SDS011;20127;48.962;8.342;2023-04-19T04:07:54;15.23;;;11.15;;
33824;SDS011;20127;48.962;8.342;2023-04-19T04:10:58;16.60;;;11.57;;
33824;SDS011;20127;48.962;8.342;2023-04-19T04:13:59;14.00;;;10.93;;
33824;SDS011;20127;48.962;8.342;2023-04-19T04:17:01;15.40;;;10.80;;
33824;SDS011;20127;48.962;8.342;2023-04-19T04:20:03;17.67;;;11.90;;
33824;SDS011;20127;48.962;8.342;2023-04-19T04:23:06;15.27;;;11.27;;
33824;SDS011;20127;48.962;8.342;2023-04-19T04:26:09;12.90;;;10.77;;
33824;SDS011;20127;48.962;8.342;2023-04-19T04:29:12;14.00;;;10.35;;
33824;SDS011;20127;48.962;8.342;2023-04-19T04:32:14;17.23;;;11.27;;
33824;SDS011;20127;48.962;8.342;2023-04-19T04:35:17;14.63;;;11.93;;
33824;SDS011;20127;48.962;8.342;2023-04-19T04:38:19;15.75;;;11.77;;
33824;SDS011;20127;48.962;8.342;2023-04-19T04:41:22;15.52;;;12.18;;
33824;SDS011;20127;48.962;8.342;2023-04-19T04:44:24;13.63;;;9.63;;
33824;SDS011;20127;48.962;8.342;2023-04-19T04:47:29;12.90;;;9.90;;
33824;SDS011;20127;48.962;8.342;2023-04-19T04:50:31;17.70;;;11.55;;
33824;SDS011;20127;48.962;8.342;2023-04-19T04:53:33;13.13;;;11.50;;
33824;SDS011;20127;48.962;8.342;2023-04-19T04:56:36;14.38;;;10.60;;
33824;SDS011;20127;48.962;8.342;2023-04-19T04:59:38;12.20;;;10.25;;
33824;SDS011;20127;48.962;8.342;2023-04-19T05:02:40;13.93;;;10.20;;
33824;SDS011;20127;48.962;8.342;2023-04-19T05:05:41;15.18;;;9.60;;
33824;SDS011;20127;48.962;8.342;2023-04-19T05:08:43;15.05;;;10.50;;
33824;SDS011;20127;48.962;8.342;2023-04-19T05:11:46;16.63;;;11.40;;
33824;SDS011;20127;48.962;8.342;2023-04-19T05:14:48;12.80;;;10.30;;
33824;SDS011;20127;48.962;8.342;2023-04-19T05:17:49;13.85;;;9.98;;
33824;SDS011;20127;48.962;8.342;2023-04-19T05:20:51;16.08;;;11.20;;
33824;SDS011;20127;48.962;8.342;2023-04-19T05:23:53;12.32;;;9.57;;
33824;SDS011;20127;48.962;8.342;2023-04-19T05:26:56;16.67;;;11.25;;
33824;SDS011;20127;48.962;8.342;2023-04-19T05:29:58;15.35;;;10.63;;
33824;SDS011;20127;48.962;8.342;2023-04-19T05:32:59;17.40;;;11.10;;
33824;SDS011;20127;48.962;8.342;2023-04-19T05:36:01;13.10;;;9.68;;
33824;SDS011;20127;48.962;8.342;2023-04-19T05:39:03;14.57;;;10.80;;
33824;SDS011;20127;48.962;8.342;2023-04-19T05:42:07;14.77;;;10.50;;
33824;SDS011;20127;48.962;8.342;2023-04-19T05:45:09;12.95;;;10.68;;
33824;SDS011;20127;48.962;8.342;2023-04-19T05:48:11;13.73;;;10.38;;
33824;SDS011;20127;48.962;8.342;2023-04-19T05:51:13;10.68;;;8.82;;
33824;SDS011;20127;48.962;8.342;2023-04-19T05:54:16;13.40;;;10.65;;
33824;SDS011;20127;48.962;8.342;2023-04-19T05:57:20;12.02;;;10.48;;
33824;SDS011;20127;48.962;8.342;2023-04-19T06:00:23;13.35;;;11.82;;
33824;SDS011;20127;48.962;8.342;2023-04-19T06:03:25;14.88;;;11.70;;
33824;SDS011;20127;48.962;8.342;2023-04-19T06:06:26;12.70;;;10.35;;
33824;SDS011;20127;48.962;8.342;2023-04-19T06:09:28;17.52;;;12.18;;
33824;SDS011;20127;48.962;8.342;2023-04-19T06:12:31;13.20;;;11.80;;
33824;SDS011;20127;48.962;8.342;2023-04-19T06:15:33;11.40;;;9.35;;
33824;SDS011;20127;48.962;8.342;2023-04-19T06:18:35;14.02;;;10.38;;
33824;SDS011;20127;48.962;8.342;2023-04-19T06:21:37;14.20;;;10.60;;
33824;SDS011;20127;48.962;8.342;2023-04-19T06:24:39;13.10;;;9.98;;
33824;SDS011;20127;48.962;8.342;2023-04-19T06:27:42;14.35;;;10.77;;
33824;SDS011;20127;48.962;8.342;2023-04-19T06:30:44;12.98;;;11.40;;
33824;SDS011;20127;48.962;8.342;2023-04-19T06:33:46;13.65;;;9.70;;
33824;SDS011;20127;48.962;8.342;2023-04-19T06:36:47;14.57;;;10.90;;
33824;SDS011;20127;48.962;8.342;2023-04-19T06:39:49;10.32;;;8.90;;
33824;SDS011;20127;48.962;8.342;2023-04-19T06:42:52;13.60;;;11.20;;
33824;SDS011;20127;48.962;8.342;2023-04-19T06:45:57;13.95;;;10.32;;
33824;SDS011;20127;48.962;8.342;2023-04-19T06:48:59;11.38;;;9.70;;
33824;SDS011;20127;48.962;8.342;2023-04-19T06:52:01;12.52;;;9.25;;
33824;SDS011;20127;48.962;8.342;2023-04-19T06:55:06;11.82;;;10.65;;
33824;SDS011;20127;48.962;8.342;2023-04-19T06:58:20;12.25;;;9.93;;
33824;SDS011;20127;48.962;8.342;2023-04-19T07:01:22;15.52;;;10.50;;
33824;SDS011;20127;48.962;8.342;2023-04-19T07:04:25;10.93;;;9.80;;
33824;SDS011;20127;48.962;8.342;2023-04-19T07:07:27;11.00;;;9.90;;
33824;SDS011;20127;48.962;8.342;2023-04-19T07:10:29;11.27;;;9.25;;
33824;SDS011;20127;48.962;8.342;2023-04-19T07:13:32;12.07;;;9.60;;
33824;SDS011;20127;48.962;8.342;2023-04-19T07:16:33;10.05;;;8.23;;
33824;SDS011;20127;48.962;8.342;2023-04-19T07:19:35;11.55;;;8.23;;
33824;SDS011;20127;48.962;8.342;2023-04-19T07:22:37;13.57;;;9.98;;
33824;SDS011;20127;48.962;8.342;2023-04-19T07:25:38;10.90;;;8.60;;
33824;SDS011;20127;48.962;8.342;2023-04-19T07:28:41;9.65;;;7.25;;
33824;SDS011;20127;48.962;8.342;2023-04-19T07:31:43;12.32;;;9.23;;
33824;SDS011;20127;48.962;8.342;2023-04-19T07:34:45;10.88;;;8.35;;
33824;SDS011;20127;48.962;8.342;2023-04-19T07:37:46;10.18;;;9.00;;
33824;SDS011;20127;48.962;8.342;2023-04-19T07:40:48;11.20;;;9.18;;
33824;SDS011;20127;48.962;8.342;2023-04-19T07:43:51;9.15;;;8.25;;
33824;SDS011;20127;48.962;8.342;2023-04-19T07:46:53;9.88;;;8.82;;
33824;SDS011;20127;48.962;8.342;2023-04-19T07:49:54;9.18;;;8.18;;
33824;SDS011;20127;48.962;8.342;2023-04-19T07:52:56;10.20;;;8.13;;
33824;SDS011;20127;48.962;8.342;2023-04-19T07:55:58;9.20;;;8.27;;
33824;SDS011;20127;48.962;8.342;2023-04-19T07:59:01;9.95;;;8.95;;
33824;SDS011;20127;48.962;8.342;2023-04-19T08:02:02;8.52;;;7.70;;
33824;SDS011;20127;48.962;8.342;2023-04-19T08:05:04;9.20;;;7.85;;
33824;SDS011;20127;48.962;8.342;2023-04-19T08:08:08;8.60;;;7.70;;
33824;SDS011;20127;48.962;8.342;2023-04-19T08:11:09;11.30;;;7.60;;
33824;SDS011;20127;48.962;8.342;2023-04-19T08:14:12;11.15;;;7.38;;
33824;SDS011;20127;48.962;8.342;2023-04-19T08:17:14;8.73;;;7.85;;
33824;SDS011;20127;48.962;8.342;2023-04-19T08:20:19;7.88;;;7.10;;
33824;SDS011;20127;48.962;8.342;2023-04-19T08:23:22;10.88;;;7.25;;
33824;SDS011;20127;48.962;8.342;2023-04-19T08:26:24;9.48;;;7.78;;
33824;SDS011;20127;48.962;8.342;2023-04-19T08:29:27;8.63;;;7.75;;
33824;SDS011;20127;48.962;8.342;2023-04-19T08:32:28;9.75;;;7.50;;
33824;SDS011;20127;48.962;8.342;2023-04-19T08:35:30;8.63;;;7.75;;
33824;SDS011;20127;48.962;8.342;2023-04-19T08:38:32;10.85;;;8.50;;
33824;SDS011;20127;48.962;8.342;2023-04-19T08:41:33;8.40;;;7.10;;
33824;SDS011;20127;48.962;8.342;2023-04-19T08:44:37;9.48;;;8.45;;
33824;SDS011;20127;48.962;8.342;2023-04-19T08:47:40;10.38;;;6.60;;
33824;SDS011;20127;48.962;8.342;2023-04-19T08:50:41;8.27;;;7.38;;
33824;SDS011;20127;48.962;8.342;2023-04-19T08:53:45;8.95;;;6.13;;
33824;SDS011;20127;48.962;8.342;2023-04-19T08:56:48;8.93;;;6.97;;
33824;SDS011;20127;48.962;8.342;2023-04-19T08:59:51;8.20;;;7.40;;
33824;SDS011;20127;48.962;8.342;2023-04-19T09:02:54;8.68;;;6.70;;
33824;SDS011;20127;48.962;8.342;2023-04-19T09:05:57;9.38;;;8.32;;
33824;SDS011;20127;48.962;8.342;2023-04-19T09:09:12;11.05;;;7.00;;
33824;SDS011;20127;48.962;8.342;2023-04-19T09:12:15;8.90;;;7.88;;
33824;SDS011;20127;48.962;8.342;2023-04-19T09:15:45;8.43;;;7.32;;
33824;SDS011;20127;48.962;8.342;2023-04-19T09:18:53;8.57;;;7.30;;
33824;SDS011;20127;48.962;8.342;2023-04-19T09:21:56;10.60;;;8.73;;
33824;SDS011;20127;48.962;8.342;2023-04-19T09:25:22;11.55;;;8.07;;
33824;SDS011;20127;48.962;8.342;2023-04-19T09:28:25;8.73;;;7.82;;
33824;SDS011;20127;48.962;8.342;2023-04-19T09:31:29;8.00;;;7.20;;
33824;SDS011;20127;48.962;8.342;2023-04-19T09:34:31;10.15;;;8.07;;
33824;SDS011;20127;48.962;8.342;2023-04-19T09:37:33;9.05;;;7.15;;
33824;SDS011;20127;48.962;8.342;2023-04-19T09:40:35;9.65;;;7.45;;
33824;SDS011;20127;48.962;8.342;2023-04-19T09:43:38;10.02;;;9.02;;
33824;SDS011;20127;48.962;8.342;2023-04-19T09:46:41;10.43;;;8.18;;
33824;SDS011;20127;48.962;8.342;2023-04-19T09:49:44;8.82;;;7.88;;
33824;SDS011;20127;48.962;8.342;2023-04-19T09:52:46;10.48;;;8.05;;
33824;SDS011;20127;48.962;8.342;2023-04-19T09:56:35;10.00;;;8.73;;
33824;SDS011;20127;48.962;8.342;2023-04-19T09:59:37;11.07;;;9.05;;
33824;SDS011;20127;48.962;8.342;2023-04-19T10:02:39;9.05;;;7.60;;
33824;SDS011;20127;48.962;8.342;2023-04-19T10:05:42;10.40;;;8.98;;
33824;SDS011;20127;48.962;8.342;2023-04-19T10:08:45;10.38;;;8.27;;
33824;SDS011;20127;48.962;8.342;2023-04-19T10:11:51;10.82;;;8.57;;
33824;SDS011;20127;48.962;8.342;2023-04-19T10:14:54;9.73;;;7.43;;
33824;SDS011;20127;48.962;8.342;2023-04-19T10:17:59;9.57;;;7.50;;
33824;SDS011;20127;48.962;8.342;2023-04-19T10:21:02;8.85;;;7.38;;
33824;SDS011;20127;48.962;8.342;2023-04-19T10:24:07;8.77;;;7.88;;
33824;SDS011;20127;48.962;8.342;2023-04-19T10:27:11;7.97;;;7.25;;
33824;SDS011;20127;48.962;8.342;2023-04-19T10:30:17;8.57;;;7.55;;
33824;SDS011;20127;48.962;8.342;2023-04-19T10:33:23;8.18;;;7.30;;
33824;SDS011;20127;48.962;8.342;2023-04-19T10:36:26;9.25;;;7.65;;
33824;SDS011;20127;48.962;8.342;2023-04-19T10:39:40;7.88;;;6.05;;
33824;SDS011;20127;48.962;8.342;2023-04-19T10:49:43;8.90;;;7.53;;
33824;SDS011;20127;48.962;8.342;2023-04-19T10:52:45;10.23;;;7.18;;
33824;SDS011;20127;48.962;8.342;2023-04-19T10:55:48;9.65;;;7.03;;
33824;SDS011;20127;48.962;8.342;2023-04-19T11:02:26;9.07;;;8.07;;
33824;SDS011;20127;48.962;8.342;2023-04-19T11:05:29;8.97;;;7.77;;
33824;SDS011;20127;48.962;8.342;2023-04-19T11:08:51;15.55;;;7.97;;
33824;SDS011;20127;48.962;8.342;2023-04-19T11:11:53;8.18;;;7.38;;
33824;SDS011;20127;48.962;8.342;2023-04-19T11:15:00;8.85;;;7.80;;
33824;SDS011;20127;48.962;8.342;2023-04-19T11:18:02;8.65;;;7.70;;
33824;SDS011;20127;48.962;8.342;2023-04-19T11:21:04;11.63;;;8.05;;
33824;SDS011;20127;48.962;8.342;2023-04-19T11:24:06;11.38;;;8.57;;
33824;SDS011;20127;48.962;8.342;2023-04-19T11:27:08;8.45;;;6.97;;
33824;SDS011;20127;48.962;8.342;2023-04-19T11:30:12;8.35;;;7.35;;
33824;SDS011;20127;48.962;8.342;2023-04-19T11:33:15;10.10;;;7.47;;
33824;SDS011;20127;48.962;8.342;2023-04-19T11:39:25;8.80;;;7.50;;
33824;SDS011;20127;48.962;8.342;2023-04-19T11:42:26;7.75;;;6.95;;
33824;SDS011;20127;48.962;8.342;2023-04-19T11:45:30;9.27;;;7.28;;
33824;SDS011;20127;48.962;8.342;2023-04-19T11:48:33;7.78;;;6.97;;
33824;SDS011;20127;48.962;8.342;2023-04-19T11:51:39;8.65;;;7.68;;
33824;SDS011;20127;48.962;8.342;2023-04-19T11:54:42;8.37;;;7.43;;
33824;SDS011;20127;48.962;8.342;2023-04-19T11:57:45;9.90;;;8.20;;
33824;SDS011;20127;48.962;8.342;2023-04-19T12:00:49;9.48;;;7.53;;
33824;SDS011;20127;48.962;8.342;2023-04-19T12:03:51;8.68;;;7.00;;
33824;SDS011;20127;48.962;8.342;2023-04-19T12:06:55;8.50;;;7.40;;
33824;SDS011;20127;48.962;8.342;2023-04-19T12:10:06;9.25;;;7.18;;
33824;SDS011;20127;48.962;8.342;2023-04-19T12:13:15;7.93;;;6.82;;
33824;SDS011;20127;48.962;8.342;2023-04-19T12:16:27;7.20;;;6.25;;
33824;SDS011;20127;48.962;8.342;2023-04-19T12:19:33;9.77;;;7.00;;
33824;SDS011;20127;48.962;8.342;2023-04-19T12:22:36;9.25;;;7.53;;
33824;SDS011;20127;48.962;8.342;2023-04-19T12:25:37;10.45;;;8.00;;
33824;SDS011;20127;48.962;8.342;2023-04-19T12:28:39;10.40;;;9.20;;
33824;SDS011;20127;48.962;8.342;2023-04-19T12:31:42;9.35;;;8.35;;
33824;SDS011;20127;48.962;8.342;2023-04-19T12:34:44;10.55;;;9.35;;
33824;SDS011;20127;48.962;8.342;2023-04-19T12:37:46;10.30;;;9.27;;
33824;SDS011;20127;48.962;8.342;2023-04-19T12:40:48;11.98;;;8.02;;
33824;SDS011;20127;48.962;8.342;2023-04-19T12:43:49;14.20;;;10.20;;
33824;SDS011;20127;48.962;8.342;2023-04-19T12:46:52;12.30;;;10.02;;
33824;SDS011;20127;48.962;8.342;2023-04-19T12:49:56;17.02;;;11.13;;
33824;SDS011;20127;48.962;8.342;2023-04-19T12:52:57;11.55;;;10.10;;
33824;SDS011;20127;48.962;8.342;2023-04-19T12:55:59;13.55;;;10.95;;
33824;SDS011;20127;48.962;8.342;2023-04-19T12:59:01;12.85;;;10.50;;
33824;SDS011;20127;48.962;8.342;2023-04-19T13:02:04;12.40;;;11.10;;
33824;SDS011;20127;48.962;8.342;2023-04-19T13:05:07;13.43;;;10.35;;
33824;SDS011;20127;48.962;8.342;2023-04-19T13:08:10;11.27;;;10.15;;
33824;SDS011;20127;48.962;8.342;2023-04-19T13:11:12;13.88;;;12.38;;
33824;SDS011;20127;48.962;8.342;2023-04-19T13:14:14;14.05;;;10.52;;
33824;SDS011;20127;48.962;8.342;2023-04-19T13:17:17;14.23;;;10.75;;
33824;SDS011;20127;48.962;8.342;2023-04-19T13:20:19;12.77;;;11.02;;
33824;SDS011;20127;48.962;8.342;2023-04-19T13:23:20;11.52;;;10.32;;
33824;SDS011;20127;48.962;8.342;2023-04-19T13:26:22;13.45;;;11.75;;
33824;SDS011;20127;48.962;8.342;2023-04-19T13:29:24;12.38;;;11.15;;
33824;SDS011;20127;48.962;8.342;2023-04-19T13:32:27;12.88;;;11.40;;
33824;SDS011;20127;48.962;8.342;2023-04-19T13:35:29;13.63;;;9.70;;
33824;SDS011;20127;48.962;8.342;2023-04-19T13:38:30;13.65;;;11.13;;
33824;SDS011;20127;48.962;8.342;2023-04-19T13:41:32;17.38;;;11.63;;
33824;SDS011;20127;48.962;8.342;2023-04-19T13:44:34;15.23;;;11.38;;
33824;SDS011;20127;48.962;8.342;2023-04-19T13:47:37;13.90;;;11.77;;
33824;SDS011;20127;48.962;8.342;2023-04-19T13:50:39;15.52;;;10.73;;
33824;SDS011;20127;48.962;8.342;2023-04-19T13:53:40;16.45;;;11.88;;
33824;SDS011;20127;48.962;8.342;2023-04-19T13:56:42;14.77;;;11.27;;
33824;SDS011;20127;48.962;8.342;2023-04-19T13:59:44;15.57;;;11.68;;
33824;SDS011;20127;48.962;8.342;2023-04-19T14:02:47;21.50;;;14.65;;
33824;SDS011;20127;48.962;8.342;2023-04-19T14:05:49;19.73;;;13.90;;
33824;SDS011;20127;48.962;8.342;2023-04-19T14:08:50;16.17;;;13.38;;
33824;SDS011;20127;48.962;8.342;2023-04-19T14:11:52;19.10;;;14.82;;
33824;SDS011;20127;48.962;8.342;2023-04-19T14:14:54;23.98;;;15.50;;
33824;SDS011;20127;48.962;8.342;2023-04-19T14:17:57;18.33;;;15.25;;
33824;SDS011;20127;48.962;8.342;2023-04-19T14:21:00;19.50;;;15.73;;
33824;SDS011;20127;48.962;8.342;2023-04-19T14:24:01;18.50;;;16.25;;
33824;SDS011;20127;48.962;8.342;2023-04-19T14:27:03;22.48;;;16.40;;
33824;SDS011;20127;48.962;8.342;2023-04-19T14:30:05;24.42;;;16.83;;
33824;SDS011;20127;48.962;8.342;2023-04-19T14:33:10;21.63;;;17.25;;
33824;SDS011;20127;48.962;8.342;2023-04-19T14:36:11;26.50;;;18.83;;
33824;SDS011;20127;48.962;8.342;2023-04-19T14:39:14;22.85;;;17.48;;
33824;SDS011;20127;48.962;8.342;2023-04-19T14:42:16;20.75;;;17.83;;
33824;SDS011;20127;48.962;8.342;2023-04-19T14:45:18;20.00;;;16.58;;
33824;SDS011;20127;48.962;8.342;2023-04-19T14:48:21;21.45;;;17.33;;
33824;SDS011;20127;48.962;8.342;2023-04-19T14:51:23;19.00;;;14.93;;
33824;SDS011;20127;48.962;8.342;2023-04-19T14:54:25;21.55;;;15.43;;
33824;SDS011;20127;48.962;8.342;2023-04-19T14:57:26;19.65;;;15.48;;
33824;SDS011;20127;48.962;8.342;2023-04-19T15:00:28;19.52;;;14.20;;
33824;SDS011;20127;48.962;8.342;2023-04-19T15:03:31;19.70;;;14.65;;
33824;SDS011;20127;48.962;8.342;2023-04-19T15:06:33;15.55;;;13.60;;
33824;SDS011;20127;48.962;8.342;2023-04-19T15:09:35;23.42;;;14.93;;
33824;SDS011;20127;48.962;8.342;2023-04-19T15:12:37;17.63;;;13.98;;
33824;SDS011;20127;48.962;8.342;2023-04-19T15:15:38;18.42;;;12.52;;
33824;SDS011;20127;48.962;8.342;2023-04-19T15:18:41;13.25;;;11.40;;
33824;SDS011;20127;48.962;8.342;2023-04-19T15:21:43;13.63;;;10.15;;
33824;SDS011;20127;48.962;8.342;2023-04-19T15:24:45;14.73;;;10.82;;
33824;SDS011;20127;48.962;8.342;2023-04-19T15:27:47;17.20;;;11.18;;
33824;SDS011;20127;48.962;8.342;2023-04-19T15:30:52;13.00;;;10.25;;
33824;SDS011;20127;48.962;8.342;2023-04-19T15:34:01;10.82;;;9.23;;
33824;SDS011;20127;48.962;8.342;2023-04-19T15:37:02;12.80;;;10.35;;
33824;SDS011;20127;48.962;8.342;2023-04-19T15:40:06;13.93;;;9.45;;
33824;SDS011;20127;48.962;8.342;2023-04-19T15:43:08;13.85;;;10.93;;
33824;SDS011;20127;48.962;8.342;2023-04-19T15:46:10;10.75;;;9.48;;
33824;SDS011;20127;48.962;8.342;2023-04-19T15:49:17;18.25;;;10.82;;
33824;SDS011;20127;48.962;8.342;2023-04-19T15:52:36;11.50;;;9.25;;
33824;SDS011;20127;48.962;8.342;2023-04-19T15:55:38;13.30;;;8.35;;
33824;SDS011;20127;48.962;8.342;2023-04-19T15:58:40;13.35;;;9.85;;
33824;SDS011;20127;48.962;8.342;2023-04-19T16:01:42;11.88;;;9.48;;
33824;SDS011;20127;48.962;8.342;2023-04-19T16:04:46;9.95;;;8.93;;
33824;SDS011;20127;48.962;8.342;2023-04-19T16:07:50;12.75;;;9.18;;
33824;SDS011;20127;48.962;8.342;2023-04-19T16:11:01;9.82;;;8.82;;
33824;SDS011;20127;48.962;8.342;2023-04-19T16:14:02;11.32;;;8.75;;
33824;SDS011;20127;48.962;8.342;2023-04-19T16:17:04;10.73;;;9.32;;
33824;SDS011;20127;48.962;8.342;2023-04-19T16:20:08;10.30;;;9.13;;
33824;SDS011;20127;48.962;8.342;2023-04-19T16:23:10;10.38;;;7.22;;
33824;SDS011;20127;48.962;8.342;2023-04-19T16:26:13;7.65;;;6.32;;
33824;SDS011;20127;48.962;8.342;2023-04-19T16:29:15;4.95;;;4.40;;
33824;SDS011;20127;48.962;8.342;2023-04-19T16:32:16;6.13;;;4.55;;
33824;SDS011;20127;48.962;8.342;2023-04-19T16:35:19;5.80;;;4.60;;
33824;SDS011;20127;48.962;8.342;2023-04-19T16:38:21;6.65;;;4.82;;
33824;SDS011;20127;48.962;8.342;2023-04-19T16:41:23;5.28;;;4.72;;
33824;SDS011;20127;48.962;8.342;2023-04-19T16:44:25;8.50;;;5.97;;
33824;SDS011;20127;48.962;8.342;2023-04-19T16:47:26;7.70;;;6.90;;
33824;SDS011;20127;48.962;8.342;2023-04-19T16:50:31;8.00;;;6.10;;
33824;SDS011;20127;48.962;8.342;2023-04-19T16:53:33;9.93;;;7.75;;
33824;SDS011;20127;48.962;8.342;2023-04-19T16:56:34;12.85;;;7.70;;
33824;SDS011;20127;48.962;8.342;2023-04-19T16:59:36;9.05;;;6.65;;
33824;SDS011;20127;48.962;8.342;2023-04-19T17:02:38;6.80;;;6.03;;
33824;SDS011;20127;48.962;8.342;2023-04-19T17:05:41;11.68;;;7.72;;
33824;SDS011;20127;48.962;8.342;2023-04-19T17:08:43;7.18;;;6.05;;
33824;SDS011;20127;48.962;8.342;2023-04-19T17:11:44;9.30;;;7.32;;
33824;SDS011;20127;48.962;8.342;2023-04-19T17:14:46;11.98;;;7.45;;
33824;SDS011;20127;48.962;8.342;2023-04-19T17:17:47;8.00;;;5.65;;
33824;SDS011;20127;48.962;8.342;2023-04-19T17:20:50;6.10;;;5.50;;
33824;SDS011;20127;48.962;8.342;2023-04-19T17:23:52;6.75;;;4.55;;
33824;SDS011;20127;48.962;8.342;2023-04-19T17:26:54;6.95;;;5.60;;
33824;SDS011;20127;48.962;8.342;2023-04-19T17:29:56;6.45;;;3.83;;
33824;SDS011;20127;48.962;8.342;2023-04-19T17:32:57;7.35;;;5.50;;
33824;SDS011;20127;48.962;8.342;2023-04-19T17:36:00;6.22;;;4.53;;
33824;SDS011;20127;48.962;8.342;2023-04-19T17:39:02;9.57;;;5.10;;
33824;SDS011;20127;48.962;8.342;2023-04-19T17:42:06;8.70;;;4.50;;
33824;SDS011;20127;48.962;8.342;2023-04-19T17:45:08;7.38;;;6.22;;
33824;SDS011;20127;48.962;8.342;2023-04-19T17:48:11;6.65;;;5.78;;
33824;SDS011;20127;48.962;8.342;2023-04-19T17:51:14;9.80;;;6.65;;
33824;SDS011;20127;48.962;8.342;2023-04-19T17:54:15;9.02;;;5.57;;
33824;SDS011;20127;48.962;8.342;2023-04-19T17:57:17;7.00;;;5.60;;
33824;SDS011;20127;48.962;8.342;2023-04-19T18:00:19;10.73;;;6.40;;
33824;SDS011;20127;48.962;8.342;2023-04-19T18:03:21;8.73;;;6.28;;
33824;SDS011;20127;48.962;8.342;2023-04-19T18:06:24;7.50;;;5.38;;
33824;SDS011;20127;48.962;8.342;2023-04-19T18:09:26;7.80;;;6.95;;
33824;SDS011;20127;48.962;8.342;2023-04-19T18:12:28;8.10;;;7.07;;
33824;SDS011;20127;48.962;8.342;2023-04-19T18:15:30;6.82;;;5.88;;